Saturday, November 22, 2014
23:42 UTC
  |  Log In   |  Register Free
Airport Search:

Heart Of Georgia Regional Airport
(KEZM)

FAA data valid effective November 13, 2014 - January 08, 2015 (unless otherwise noted).

 
 
 
 
 
 
 
 
 
 
 
 
 
 

Current Aviation Weather for Heart Of Georgia Regional Airport (KEZM)

The most recent METAR observation for KEZM was updated at: 2317
METAR Summary (Translated METAR)
KEZM
222255Z AUTO 10007KT 10SM OVC038 18/12 A3027 RMK AO2 T01770115
KDBN
222255Z AUTO 09004KT 10SM OVC045 16/07 A3028 RMK AO2
(22.1 nm NE from KEZM)
KAZE
222255Z AUTO 10009G14KT 10SM -RA BKN038 BKN075 OVC100 18/13 A3025 RMK AO2 T01820125
(31.6 nm SE from KEZM)
TAF
No TAF information found within 50 nm of KEZM
  Airport Weather Conditions for KEZM

 Current Weather at EZM
64° F
Overcast
East winds at 5.8 mph
EZM NOAA Radar

Pressure: 30.27 in
Humidity: 66%
Wind: East at 5.8 MPH (5 KT)
Dew Point: 52.2°F
Visibility: 10.00 mi


Airport Weather Forecast for KEZM

Translated METAR and TAF for KEZM
Translated METAR for KEZM (2337 UTC 22 November 2014)
found at http://aviationweather.gov/adds/metars/
 
METAR text: KEZM 222315Z AUTO 10005KT 10SM OVC036 18/12 A3027 RMK AO2 T01770117
Conditions at: KEZM (EASTMAN , GA, US) observed 2315 UTC 22 November 2014
Temperature: 17.7°C (64°F)
Dewpoint: 11.7°C (53°F) [RH = 68%]
Pressure (altimeter): 30.27 inches Hg (1025.1 mb)
Winds: from the E (100 degrees) at 6 MPH (5 knots; 2.6 m/s)
Visibility: 10 or more miles (16+ km)
Ceiling: 3600 feet AGL
Clouds: overcast cloud deck at 3600 feet AGL
Weather: automated observation with no human augmentation;
there may or may not be significant weather present at this time
Translated TAF for KEZM

There is no translated TAF available for this airport

Find All Airport Services Find A Hotel Find A Rental Car Find A Golf Course Find A Restaurant $100 Hamburger



FBO's on the Field
FBO Company Facility Photos Services Transportation Aviation Fuel Prices: Prices include tax
Catering Weather Repair Courtesy Rental Type 100LL JetA JetA+ MOGAS 8087
 
Heart of Georgia Regional Airport

This FBO has not yet been rated
FS:Phillips 66
Last Updated: Nov-18
Login to update fuel prices
SS:
Contact Heart of Georgia Regional AirportMore FBO Information
 
Add another FBO Facility Photos Catering Weather Repair Courtesy Rental Type 100LL JetA JetA+ MOGAS 8087
Services Transportation Aviation Fuel Prices: Prices include tax


model-print
model-print
model-print
model-print